createdAt,value
2023-03-17T00:00:45.981Z,2.03
2023-03-17T00:03:23.145Z,2.10
2023-03-17T00:05:51.058Z,2.15
2023-03-17T00:08:27.838Z,2.30
2023-03-17T00:10:55.205Z,2.08
2023-03-17T00:13:24.193Z,2.33
2023-03-17T00:16:03.186Z,2.58
2023-03-17T00:18:32.001Z,2.10
2023-03-17T00:20:59.882Z,2.05
2023-03-17T00:23:26.957Z,2.40
2023-03-17T00:25:54.951Z,2.30
2023-03-17T00:28:24.798Z,2.28
2023-03-17T00:31:01.138Z,2.20
2023-03-17T00:33:30.362Z,2.13
2023-03-17T00:35:58.570Z,1.73
2023-03-17T00:38:26.699Z,1.90
2023-03-17T00:40:54.297Z,2.00
2023-03-17T00:43:22.283Z,1.75
2023-03-17T00:45:51.108Z,1.83
2023-03-17T00:48:21.375Z,1.83
2023-03-17T00:50:50.990Z,1.83
2023-03-17T00:53:22.328Z,2.20
2023-03-17T00:55:50.274Z,1.75
2023-03-17T00:58:28.898Z,1.80
2023-03-17T01:00:57.769Z,1.98
2023-03-17T01:03:25.529Z,2.00
2023-03-17T01:05:58.761Z,2.00
2023-03-17T01:08:28.005Z,1.70
2023-03-17T01:10:56.733Z,2.05
2023-03-17T01:13:24.369Z,2.05
2023-03-17T01:15:52.452Z,1.90
2023-03-17T01:18:21.444Z,1.88
2023-03-17T01:20:48.855Z,2.03
2023-03-17T01:23:17.935Z,1.95
2023-03-17T01:25:45.788Z,1.90
2023-03-17T01:28:15.968Z,1.80
2023-03-17T01:30:45.276Z,2.05
2023-03-17T01:33:14.553Z,1.90
2023-03-17T01:35:43.968Z,1.52
2023-03-17T01:38:12.706Z,1.80
2023-03-17T01:40:49.816Z,1.65
2023-03-17T01:43:29.662Z,2.03
2023-03-17T01:46:34.619Z,1.98
2023-03-17T01:49:14.468Z,1.50
2023-03-17T01:52:01.671Z,1.60
2023-03-17T01:54:36.053Z,1.77
2023-03-17T01:57:14.776Z,1.83
2023-03-17T01:59:50.310Z,1.75
2023-03-17T02:02:24.648Z,1.98
2023-03-17T02:04:52.816Z,1.67
2023-03-17T02:07:22.208Z,1.85
2023-03-17T02:09:49.705Z,1.70
2023-03-17T02:12:24.642Z,1.70
2023-03-17T02:14:52.844Z,1.60
2023-03-17T02:17:22.997Z,1.88
2023-03-17T02:19:50.573Z,1.70
2023-03-17T02:22:19.179Z,1.60
2023-03-17T02:24:55.823Z,2.03
2023-03-17T02:27:34.913Z,1.80
2023-03-17T02:30:08.104Z,1.83
2023-03-17T02:32:36.598Z,1.80
2023-03-17T02:35:05.255Z,2.17
2023-03-17T02:37:32.978Z,1.60
2023-03-17T02:40:01.740Z,1.60
2023-03-17T02:42:54.211Z,2.10
2023-03-17T02:45:23.693Z,2.10
2023-03-17T02:47:51.949Z,1.85
2023-03-17T02:50:25.422Z,1.63
2023-03-17T02:52:52.450Z,1.60
2023-03-17T02:55:19.674Z,1.65
2023-03-17T02:57:46.618Z,1.80
2023-03-17T03:00:15.952Z,1.70
2023-03-17T03:02:44.078Z,1.70
2023-03-17T03:05:12.787Z,1.80
2023-03-17T03:07:39.796Z,1.73
2023-03-17T03:10:14.813Z,2.03
2023-03-17T03:12:41.966Z,2.13
2023-03-17T03:15:10.029Z,1.50
2023-03-17T03:17:37.001Z,2.22
2023-03-17T03:20:07.326Z,1.65
2023-03-17T03:22:34.341Z,1.40
2023-03-17T03:25:02.410Z,1.92
2023-03-17T03:27:29.639Z,1.98
2023-03-17T03:29:57.168Z,2.00
2023-03-17T03:32:26.409Z,1.52
2023-03-17T03:34:54.597Z,1.88
2023-03-17T03:37:21.854Z,1.80
2023-03-17T03:39:49.769Z,1.70
2023-03-17T03:42:16.877Z,1.92
2023-03-17T03:44:43.979Z,2.47
2023-03-17T03:47:12.086Z,2.45
2023-03-17T03:49:39.032Z,2.08
2023-03-17T03:52:06.691Z,2.22
2023-03-17T03:54:35.162Z,2.20
2023-03-17T03:57:02.149Z,1.92
2023-03-17T03:59:30.619Z,1.70
2023-03-17T04:01:58.607Z,1.80
2023-03-17T04:04:32.700Z,2.05
2023-03-17T04:07:01.496Z,1.95
2023-03-17T04:09:29.473Z,1.75
2023-03-17T04:11:56.456Z,2.10
2023-03-17T04:14:23.348Z,1.45
2023-03-17T04:16:50.490Z,1.70
2023-03-17T04:19:17.497Z,1.95
2023-03-17T04:21:44.594Z,2.47
2023-03-17T04:24:11.779Z,2.00
2023-03-17T04:26:38.969Z,2.35
2023-03-17T04:29:08.036Z,2.00
2023-03-17T04:31:36.832Z,1.95
2023-03-17T04:34:03.795Z,2.35
2023-03-17T04:36:32.768Z,1.90
2023-03-17T04:38:59.635Z,2.05
2023-03-17T04:41:26.533Z,2.55
2023-03-17T04:43:54.476Z,2.72
2023-03-17T04:46:21.386Z,2.50
2023-03-17T04:48:49.243Z,2.40
2023-03-17T04:51:17.088Z,2.30
2023-03-17T04:53:44.874Z,2.72
2023-03-17T04:56:12.255Z,2.55
2023-03-17T04:58:41.269Z,2.40
2023-03-17T05:01:08.733Z,2.30
2023-03-17T05:03:35.819Z,2.53
2023-03-17T05:06:03.747Z,2.80
2023-03-17T05:08:31.578Z,2.65
2023-03-17T05:11:00.106Z,2.38
2023-03-17T05:13:27.624Z,2.53
2023-03-17T05:15:58.002Z,3.00
2023-03-17T05:18:27.300Z,2.40
2023-03-17T05:20:58.082Z,3.08
2023-03-17T05:23:26.050Z,2.60
2023-03-17T05:25:53.900Z,2.60
2023-03-17T05:28:24.852Z,2.50
2023-03-17T05:30:54.363Z,2.55
2023-03-17T05:33:23.197Z,2.72
2023-03-17T05:35:52.134Z,2.42
2023-03-17T05:38:21.269Z,2.35
2023-03-17T05:40:51.012Z,2.65
2023-03-17T05:43:18.008Z,2.38
2023-03-17T05:45:45.608Z,2.88
2023-03-17T05:48:13.482Z,2.83
2023-03-17T05:50:41.673Z,2.22
2023-03-17T05:53:09.734Z,2.30
2023-03-17T05:55:36.929Z,1.90
2023-03-17T05:58:05.907Z,2.63
2023-03-17T06:00:33.907Z,2.28
2023-03-17T06:03:04.274Z,2.42
2023-03-17T06:05:32.292Z,2.28
2023-03-17T06:08:02.422Z,2.28
2023-03-17T06:10:32.916Z,2.22
2023-03-17T06:13:03.773Z,2.28
2023-03-17T06:15:34.608Z,2.17
2023-03-17T06:18:02.771Z,2.10
2023-03-17T06:20:30.150Z,2.25
2023-03-17T06:23:04.530Z,1.85
2023-03-17T06:25:37.169Z,2.67
2023-03-17T06:28:08.787Z,2.23
2023-03-17T06:30:40.832Z,2.63
2023-03-17T06:33:12.976Z,2.70
2023-03-17T06:35:43.092Z,2.63
2023-03-17T06:38:12.830Z,2.53
2023-03-17T06:40:41.398Z,2.92
2023-03-17T06:43:08.467Z,2.30
2023-03-17T06:45:37.474Z,2.70
2023-03-17T06:48:04.728Z,2.55
2023-03-17T06:50:39.344Z,2.80
2023-03-17T06:53:08.129Z,2.53
2023-03-17T06:55:36.098Z,2.65
2023-03-17T06:58:03.272Z,2.40
2023-03-17T07:00:30.731Z,2.45
2023-03-17T07:02:59.691Z,2.28
2023-03-17T07:05:29.208Z,2.40
2023-03-17T07:08:24.607Z,2.40
2023-03-17T07:10:54.738Z,2.38
2023-03-17T07:13:47.626Z,3.05
2023-03-17T07:16:17.922Z,2.38
2023-03-17T07:18:46.692Z,2.50
2023-03-17T07:21:20.933Z,2.38
2023-03-17T07:24:05.730Z,2.53
2023-03-17T07:27:03.522Z,2.15
2023-03-17T07:29:34.491Z,2.88
2023-03-17T07:32:19.526Z,2.33
2023-03-17T07:34:49.548Z,3.28
2023-03-17T07:37:25.656Z,3.00
2023-03-17T07:39:57.637Z,2.78
2023-03-17T07:42:26.323Z,2.40
2023-03-17T07:44:59.281Z,2.85
2023-03-17T07:50:16.239Z,2.65
2023-03-17T07:52:44.699Z,3.10
2023-03-17T07:55:41.349Z,2.92
2023-03-17T07:58:15.837Z,2.45
2023-03-17T08:00:43.610Z,2.97
2023-03-17T08:03:12.736Z,2.83
2023-03-17T08:05:45.450Z,2.95
2023-03-17T08:08:15.218Z,3.20
2023-03-17T08:10:42.143Z,3.03
2023-03-17T08:13:10.117Z,3.03
2023-03-17T08:15:38.141Z,3.00
2023-03-17T08:18:05.098Z,2.97
2023-03-17T08:20:35.341Z,2.70
2023-03-17T08:23:03.771Z,2.92
2023-03-17T08:25:32.176Z,2.97
2023-03-17T08:28:04.790Z,2.80
2023-03-17T08:33:04.700Z,2.60
2023-03-17T08:35:35.111Z,2.90
2023-03-17T08:38:03.019Z,2.70
2023-03-17T08:40:32.355Z,2.80
2023-03-17T08:43:04.986Z,3.00
2023-03-17T08:45:36.373Z,3.38
2023-03-17T08:48:05.331Z,3.05
2023-03-17T08:50:36.098Z,3.35
2023-03-17T08:53:04.472Z,2.60
2023-03-17T08:55:33.344Z,2.90
2023-03-17T08:58:02.884Z,2.42
2023-03-17T09:00:30.233Z,2.70
2023-03-17T09:03:00.446Z,2.70
2023-03-17T09:05:31.636Z,2.88
2023-03-17T09:08:02.716Z,2.83
2023-03-17T09:10:32.176Z,3.00
2023-03-17T09:13:04.623Z,3.28
2023-03-17T09:15:34.101Z,3.10
2023-03-17T09:18:02.155Z,3.67
2023-03-17T09:20:32.369Z,3.03
2023-03-17T09:23:09.269Z,3.80
2023-03-17T09:25:39.912Z,3.67
2023-03-17T09:28:07.293Z,3.58
2023-03-17T09:30:44.013Z,3.38
2023-03-17T09:33:13.531Z,3.60
2023-03-17T09:35:41.709Z,3.90
2023-03-17T09:38:09.465Z,3.75
2023-03-17T09:40:49.841Z,3.28
2023-03-17T09:43:33.147Z,3.05
2023-03-17T09:46:23.025Z,3.63
2023-03-17T09:49:21.193Z,3.65
2023-03-17T09:51:51.796Z,3.65
2023-03-17T09:54:34.869Z,3.30
2023-03-17T09:57:18.670Z,3.37
2023-03-17T10:02:39.402Z,3.70
2023-03-17T10:05:27.969Z,2.83
2023-03-17T10:08:29.574Z,3.28
2023-03-17T10:11:23.529Z,3.00
2023-03-17T10:14:08.482Z,3.17
2023-03-17T10:17:19.716Z,17.35
2023-03-17T10:20:08.551Z,3.45
2023-03-17T10:22:56.464Z,3.65
2023-03-17T10:25:32.006Z,3.70
2023-03-17T10:28:08.757Z,3.50
2023-03-17T10:30:37.374Z,3.95
2023-03-17T10:33:07.337Z,3.90
2023-03-17T10:35:38.604Z,3.58
2023-03-17T10:38:20.359Z,3.55
2023-03-17T10:41:07.659Z,4.03
2023-03-17T10:43:50.034Z,4.28
2023-03-17T10:46:38.191Z,3.47
2023-03-17T10:49:16.634Z,3.17
2023-03-17T10:51:46.791Z,3.58
2023-03-17T10:54:18.971Z,3.60
2023-03-17T10:57:01.607Z,3.78
2023-03-17T10:59:37.821Z,3.35
2023-03-17T11:02:21.139Z,3.42
2023-03-17T11:04:48.489Z,2.92
2023-03-17T11:07:40.803Z,3.33
2023-03-17T11:10:20.371Z,3.35
2023-03-17T11:12:54.300Z,3.65
2023-03-17T11:15:22.838Z,3.03
2023-03-17T11:18:02.129Z,3.30
2023-03-17T11:20:42.179Z,3.70
2023-03-17T11:23:38.833Z,3.35
2023-03-17T11:26:17.810Z,3.25
2023-03-17T11:28:56.655Z,3.40
2023-03-17T11:31:39.424Z,3.30
2023-03-17T11:34:20.161Z,3.10
2023-03-17T11:36:58.725Z,3.13
2023-03-17T11:39:54.402Z,3.08
2023-03-17T11:42:48.807Z,3.05
2023-03-17T11:45:32.021Z,3.40
2023-03-17T11:48:14.011Z,3.05
2023-03-17T11:51:00.169Z,3.20
2023-03-17T11:53:36.697Z,3.47
2023-03-17T11:56:33.600Z,3.30
2023-03-17T11:59:34.425Z,3.22
2023-03-17T12:02:20.130Z,3.47
2023-03-17T12:05:05.166Z,3.25
2023-03-17T12:07:40.162Z,3.33
2023-03-17T12:10:28.809Z,3.55
2023-03-17T12:13:07.483Z,3.25
2023-03-17T12:15:44.162Z,3.13
2023-03-17T12:18:33.259Z,2.95
2023-03-17T12:21:32.852Z,3.13
2023-03-17T12:24:21.150Z,2.97
2023-03-17T12:27:14.455Z,3.10
2023-03-17T12:32:53.551Z,2.63
2023-03-17T12:35:35.407Z,2.60
2023-03-17T12:38:09.787Z,2.90
2023-03-17T12:40:45.939Z,2.88
2023-03-17T12:43:42.390Z,3.38
2023-03-17T12:46:20.575Z,2.78
2023-03-17T12:49:17.015Z,2.72
2023-03-17T12:52:07.634Z,2.60
2023-03-17T12:54:37.128Z,2.75
2023-03-17T12:57:21.062Z,2.90
2023-03-17T12:59:54.712Z,2.75
2023-03-17T13:02:28.034Z,2.53
2023-03-17T13:05:01.104Z,2.95
2023-03-17T13:07:53.904Z,2.60
2023-03-17T13:13:40.647Z,2.95
2023-03-17T13:16:27.003Z,2.83
2023-03-17T13:19:15.742Z,2.50
2023-03-17T13:21:57.928Z,2.55
2023-03-17T13:24:53.031Z,2.72
2023-03-17T13:27:32.996Z,2.20
2023-03-17T13:30:22.107Z,2.30
2023-03-17T13:33:03.730Z,2.75
2023-03-17T13:35:45.315Z,2.28
2023-03-17T13:38:29.630Z,2.45
2023-03-17T13:41:33.778Z,2.20
2023-03-17T13:44:08.083Z,2.60
2023-03-17T13:46:55.322Z,2.80
2023-03-17T13:49:36.732Z,2.65
2023-03-17T13:52:22.500Z,2.88
2023-03-17T13:55:02.401Z,2.80
2023-03-17T13:57:38.942Z,2.72
2023-03-17T14:03:10.409Z,2.88
2023-03-17T14:05:39.625Z,3.15
2023-03-17T14:08:17.642Z,2.90
2023-03-17T14:10:54.298Z,2.88
2023-03-17T14:13:25.667Z,3.13
2023-03-17T14:16:12.716Z,2.67
2023-03-17T14:18:43.913Z,2.38
2023-03-17T14:21:27.386Z,2.70
2023-03-17T14:23:59.415Z,2.78
2023-03-17T14:26:30.289Z,2.60
2023-03-17T14:29:05.062Z,2.70
2023-03-17T14:31:32.263Z,2.67
2023-03-17T14:34:02.260Z,2.92
2023-03-17T14:36:33.873Z,2.72
2023-03-17T14:39:01.237Z,2.70
2023-03-17T14:41:31.194Z,2.90
2023-03-17T14:44:00.673Z,2.35
2023-03-17T14:46:38.834Z,3.28
2023-03-17T14:49:21.010Z,2.25
2023-03-17T14:51:53.395Z,2.58
2023-03-17T14:54:34.823Z,2.50
2023-03-17T14:57:07.564Z,2.72
2023-03-17T14:59:43.599Z,2.40
2023-03-17T15:02:24.539Z,2.72
2023-03-17T15:05:02.881Z,2.78
2023-03-17T15:07:42.367Z,2.50
2023-03-17T15:10:17.889Z,2.55
2023-03-17T15:12:49.217Z,2.40
2023-03-17T15:15:21.595Z,2.47
2023-03-17T15:17:55.772Z,2.50
2023-03-17T15:20:27.654Z,2.40
2023-03-17T15:23:37.014Z,2.43
2023-03-17T15:26:27.484Z,2.08
2023-03-17T15:29:07.397Z,3.20
2023-03-17T15:31:34.743Z,2.47
2023-03-17T15:34:02.699Z,2.38
2023-03-17T15:39:13.120Z,2.20
2023-03-17T15:41:40.285Z,2.58
2023-03-17T15:44:17.268Z,2.13
2023-03-17T15:46:48.029Z,2.40
2023-03-17T15:49:18.486Z,2.10
2023-03-17T15:51:45.607Z,2.58
2023-03-17T15:54:15.223Z,2.70
2023-03-17T15:56:44.281Z,2.60
2023-03-17T15:59:13.733Z,2.85
2023-03-17T16:01:41.298Z,2.22
2023-03-17T16:04:11.341Z,2.22
2023-03-17T16:06:39.496Z,2.30
2023-03-17T16:09:30.224Z,2.92
2023-03-17T16:12:03.486Z,3.30
2023-03-17T16:14:31.520Z,3.13
2023-03-17T16:17:09.289Z,3.17
2023-03-17T16:19:51.085Z,2.83
2023-03-17T16:22:41.786Z,2.70
2023-03-17T16:31:32.849Z,3.13
2023-03-17T16:34:22.194Z,3.03
2023-03-17T16:36:54.587Z,2.60
2023-03-17T16:39:26.334Z,3.17
2023-03-17T16:42:03.308Z,3.45
2023-03-17T16:44:42.197Z,3.30
2023-03-17T16:47:25.796Z,3.40
2023-03-17T16:55:34.077Z,4.03
2023-03-17T16:58:44.970Z,4.00
2023-03-17T17:01:31.630Z,4.97
2023-03-17T17:07:18.134Z,4.40
2023-03-17T17:09:55.539Z,3.55
2023-03-17T17:12:28.879Z,4.22
2023-03-17T17:15:01.746Z,4.15
2023-03-17T17:20:27.208Z,3.90
2023-03-17T17:23:00.718Z,4.70
2023-03-17T17:28:19.465Z,4.50
2023-03-17T17:30:48.731Z,4.68
2023-03-17T17:36:17.734Z,5.75
2023-03-17T17:38:48.861Z,5.28
2023-03-17T17:41:23.781Z,5.82
2023-03-17T17:43:58.992Z,5.15
2023-03-17T17:49:24.762Z,6.40
2023-03-17T17:52:47.611Z,6.35
2023-03-17T17:58:05.335Z,6.50
2023-03-17T18:00:51.252Z,6.10
2023-03-17T18:03:32.209Z,6.55
2023-03-17T18:09:09.982Z,6.82
2023-03-17T18:11:41.508Z,6.47
2023-03-17T18:14:15.493Z,6.50
2023-03-17T18:16:45.859Z,6.75
2023-03-17T18:19:14.913Z,7.85
2023-03-17T18:21:47.797Z,7.22
2023-03-17T18:27:52.442Z,7.45
2023-03-17T18:46:10.486Z,7.93
2023-03-17T18:52:49.075Z,8.02
2023-03-17T18:55:34.447Z,8.30
2023-03-17T19:07:11.908Z,7.90
2023-03-17T19:14:15.073Z,7.32
2023-03-17T19:16:50.262Z,7.78
2023-03-17T19:22:14.537Z,7.53
2023-03-17T19:25:09.313Z,7.45
2023-03-17T19:28:10.458Z,7.63
2023-03-17T19:30:46.232Z,7.93
2023-03-17T19:33:18.368Z,8.27
2023-03-17T19:35:55.298Z,8.15
2023-03-17T19:41:35.365Z,6.88
2023-03-17T19:46:46.986Z,7.80
2023-03-17T19:49:17.545Z,8.00
2023-03-17T19:51:48.203Z,5.78
2023-03-17T19:54:23.263Z,8.30
2023-03-17T19:56:51.540Z,8.38
2023-03-17T19:59:20.103Z,8.57
2023-03-17T20:01:49.363Z,9.27
2023-03-17T20:04:21.685Z,8.70
2023-03-17T20:06:55.331Z,9.20
2023-03-17T20:09:27.951Z,9.18
2023-03-17T20:14:27.889Z,9.10
2023-03-17T20:16:57.402Z,9.02
2023-03-17T20:19:42.916Z,8.88
2023-03-17T20:22:13.660Z,9.02
2023-03-17T20:24:41.048Z,7.85
2023-03-17T20:27:10.559Z,9.13
2023-03-17T20:29:39.939Z,10.00
2023-03-17T20:32:08.064Z,10.18
2023-03-17T20:34:37.530Z,10.57
2023-03-17T20:37:05.556Z,10.55
2023-03-17T20:39:33.987Z,11.00
2023-03-17T20:42:06.817Z,10.35
2023-03-17T20:44:35.782Z,12.50
2023-03-17T20:47:04.250Z,9.50
2023-03-17T20:49:34.770Z,10.20
2023-03-17T20:52:15.946Z,11.27
2023-03-17T20:54:44.282Z,11.70
2023-03-17T20:57:24.600Z,10.82
2023-03-17T20:59:52.065Z,10.73
2023-03-17T21:02:24.746Z,10.23
2023-03-17T21:04:53.318Z,10.88
2023-03-17T21:07:21.943Z,9.55
2023-03-17T21:09:49.005Z,9.73
2023-03-17T21:12:20.518Z,9.95
2023-03-17T21:14:53.074Z,10.07
2023-03-17T21:19:48.599Z,9.07
2023-03-17T21:22:26.411Z,10.18
2023-03-17T21:24:54.350Z,10.07
2023-03-17T21:30:15.412Z,10.45
2023-03-17T21:32:43.517Z,10.25
2023-03-17T21:35:14.385Z,10.13
2023-03-17T21:37:46.851Z,10.27
2023-03-17T21:42:58.675Z,10.85
2023-03-17T21:45:25.988Z,11.13
2023-03-17T21:47:53.309Z,10.52
2023-03-17T21:50:29.241Z,9.30
2023-03-17T21:53:01.372Z,9.98
2023-03-17T21:55:43.748Z,10.23
2023-03-17T21:58:15.852Z,9.43
2023-03-17T22:00:47.741Z,9.85
2023-03-17T22:03:18.879Z,9.97
2023-03-17T22:08:44.604Z,10.48
2023-03-17T22:11:27.366Z,10.45
2023-03-17T22:14:12.434Z,9.63
2023-03-17T22:16:53.523Z,9.88
2023-03-17T22:19:47.026Z,9.43
2023-03-17T22:22:36.314Z,9.85
2023-03-17T22:25:06.786Z,10.00
2023-03-17T22:27:44.314Z,9.20
2023-03-17T22:35:56.983Z,9.82
2023-03-17T22:38:36.138Z,9.50
2023-03-17T22:44:44.337Z,9.68
2023-03-17T22:47:42.718Z,9.95
2023-03-17T22:50:11.990Z,9.52
2023-03-17T22:52:39.442Z,9.70
2023-03-17T22:55:15.131Z,11.02
2023-03-17T22:57:42.153Z,9.63
2023-03-17T23:00:16.800Z,10.43
2023-03-17T23:02:46.666Z,11.00
2023-03-17T23:05:15.071Z,10.07
2023-03-17T23:07:51.768Z,10.68
2023-03-17T23:10:25.026Z,11.13
2023-03-17T23:12:52.919Z,11.30
2023-03-17T23:15:25.361Z,10.70
2023-03-17T23:18:04.130Z,11.68
2023-03-17T23:20:31.763Z,11.13
2023-03-17T23:22:59.984Z,10.75
2023-03-17T23:25:36.863Z,11.60
2023-03-17T23:30:48.989Z,10.43
2023-03-17T23:33:21.828Z,11.43
2023-03-17T23:35:50.336Z,11.40
2023-03-17T23:38:24.229Z,10.60
2023-03-17T23:40:57.318Z,11.27
2023-03-17T23:43:26.796Z,11.10
2023-03-17T23:45:55.667Z,10.13
2023-03-17T23:48:23.169Z,12.00
2023-03-17T23:50:55.060Z,11.75
2023-03-17T23:53:24.373Z,12.77
2023-03-17T23:55:53.256Z,13.23
